sensor_id;sensor_type;location;lat;lon;timestamp;P1;P2;P0
53678;PMS5003;40119;52.030;4.708;2022-07-01T00:00:27;1;1;
53678;PMS5003;40119;52.030;4.708;2022-07-01T00:02:31;0;0;
53678;PMS5003;40119;52.030;4.708;2022-07-01T00:04:35;1;1;
53678;PMS5003;40119;52.030;4.708;2022-07-01T00:06:40;3;1;
53678;PMS5003;40119;52.030;4.708;2022-07-01T00:08:44;1;1;
53678;PMS5003;40119;52.030;4.708;2022-07-01T00:10:48;3;1;
53678;PMS5003;40119;52.030;4.708;2022-07-01T00:12:53;1;1;
53678;PMS5003;40119;52.030;4.708;2022-07-01T00:14:57;3;2;
53678;PMS5003;40119;52.030;4.708;2022-07-01T00:17:01;1;1;
53678;PMS5003;40119;52.030;4.708;2022-07-01T00:19:06;0;0;
53678;PMS5003;40119;52.030;4.708;2022-07-01T00:21:11;0;0;
53678;PMS5003;40119;52.030;4.708;2022-07-01T00:23:16;2;1;
53678;PMS5003;40119;52.030;4.708;2022-07-01T00:25:20;1;1;
53678;PMS5003;40119;52.030;4.708;2022-07-01T00:27:25;3;1;
53678;PMS5003;40119;52.030;4.708;2022-07-01T00:29:29;1;1;
53678;PMS5003;40119;52.030;4.708;2022-07-01T00:31:34;1;1;
53678;PMS5003;40119;52.030;4.708;2022-07-01T00:33:38;2;1;
53678;PMS5003;40119;52.030;4.708;2022-07-01T00:35:43;1;1;
53678;PMS5003;40119;52.030;4.708;2022-07-01T00:37:47;1;1;
53678;PMS5003;40119;52.030;4.708;2022-07-01T00:39:51;1;1;
53678;PMS5003;40119;52.030;4.708;2022-07-01T00:41:57;2;2;
53678;PMS5003;40119;52.030;4.708;2022-07-01T00:44:02;1;0;
53678;PMS5003;40119;52.030;4.708;2022-07-01T00:46:07;0;0;
53678;PMS5003;40119;52.030;4.708;2022-07-01T00:48:12;1;1;
53678;PMS5003;40119;52.030;4.708;2022-07-01T00:50:17;2;1;
53678;PMS5003;40119;52.030;4.708;2022-07-01T00:52:21;2;2;
53678;PMS5003;40119;52.030;4.708;2022-07-01T00:54:26;2;2;
53678;PMS5003;40119;52.030;4.708;2022-07-01T00:56:30;2;2;
53678;PMS5003;40119;52.030;4.708;2022-07-01T00:58:40;1;1;
53678;PMS5003;40119;52.030;4.708;2022-07-01T01:00:45;2;2;
53678;PMS5003;40119;52.030;4.708;2022-07-01T01:02:49;2;1;
53678;PMS5003;40119;52.030;4.708;2022-07-01T01:04:54;3;2;
53678;PMS5003;40119;52.030;4.708;2022-07-01T01:06:58;1;1;
53678;PMS5003;40119;52.030;4.708;2022-07-01T01:09:05;1;1;
53678;PMS5003;40119;52.030;4.708;2022-07-01T01:11:10;2;2;
53678;PMS5003;40119;52.030;4.708;2022-07-01T01:13:15;3;3;
53678;PMS5003;40119;52.030;4.708;2022-07-01T01:15:19;1;1;
53678;PMS5003;40119;52.030;4.708;2022-07-01T01:17:24;2;2;
53678;PMS5003;40119;52.030;4.708;2022-07-01T01:19:28;1;1;
53678;PMS5003;40119;52.030;4.708;2022-07-01T01:21:33;2;1;
53678;PMS5003;40119;52.030;4.708;2022-07-01T01:23:38;2;2;
53678;PMS5003;40119;52.030;4.708;2022-07-01T01:25:43;3;3;
53678;PMS5003;40119;52.030;4.708;2022-07-01T01:27:47;3;3;
53678;PMS5003;40119;52.030;4.708;2022-07-01T01:29:52;1;1;
53678;PMS5003;40119;52.030;4.708;2022-07-01T01:31:56;3;3;
53678;PMS5003;40119;52.030;4.708;2022-07-01T01:34:00;4;4;
53678;PMS5003;40119;52.030;4.708;2022-07-01T01:36:05;4;4;
53678;PMS5003;40119;52.030;4.708;2022-07-01T01:38:10;3;3;
53678;PMS5003;40119;52.030;4.708;2022-07-01T01:40:15;5;5;
53678;PMS5003;40119;52.030;4.708;2022-07-01T01:42:19;4;4;
53678;PMS5003;40119;52.030;4.708;2022-07-01T01:44:23;6;5;
53678;PMS5003;40119;52.030;4.708;2022-07-01T01:46:28;6;5;
53678;PMS5003;40119;52.030;4.708;2022-07-01T01:48:32;5;5;
53678;PMS5003;40119;52.030;4.708;2022-07-01T01:50:36;5;5;
53678;PMS5003;40119;52.030;4.708;2022-07-01T01:52:41;5;5;
53678;PMS5003;40119;52.030;4.708;2022-07-01T01:54:45;5;5;
53678;PMS5003;40119;52.030;4.708;2022-07-01T01:56:50;4;4;
53678;PMS5003;40119;52.030;4.708;2022-07-01T01:58:54;5;4;
53678;PMS5003;40119;52.030;4.708;2022-07-01T02:00:59;3;3;
53678;PMS5003;40119;52.030;4.708;2022-07-01T02:03:03;4;4;
53678;PMS5003;40119;52.030;4.708;2022-07-01T02:05:09;5;5;
53678;PMS5003;40119;52.030;4.708;2022-07-01T02:07:15;4;4;
53678;PMS5003;40119;52.030;4.708;2022-07-01T02:09:20;4;4;
53678;PMS5003;40119;52.030;4.708;2022-07-01T02:11:24;6;6;
53678;PMS5003;40119;52.030;4.708;2022-07-01T02:13:28;9;6;
53678;PMS5003;40119;52.030;4.708;2022-07-01T02:15:33;6;6;
53678;PMS5003;40119;52.030;4.708;2022-07-01T02:17:37;6;3;
53678;PMS5003;40119;52.030;4.708;2022-07-01T02:19:41;9;8;
53678;PMS5003;40119;52.030;4.708;2022-07-01T02:21:46;6;6;
53678;PMS5003;40119;52.030;4.708;2022-07-01T02:23:50;7;7;
53678;PMS5003;40119;52.030;4.708;2022-07-01T02:25:55;8;8;
53678;PMS5003;40119;52.030;4.708;2022-07-01T02:27:59;6;6;
53678;PMS5003;40119;52.030;4.708;2022-07-01T02:30:04;9;7;
53678;PMS5003;40119;52.030;4.708;2022-07-01T02:32:09;8;8;
53678;PMS5003;40119;52.030;4.708;2022-07-01T02:34:14;9;9;
53678;PMS5003;40119;52.030;4.708;2022-07-01T02:36:18;8;8;
53678;PMS5003;40119;52.030;4.708;2022-07-01T02:38:23;8;7;
53678;PMS5003;40119;52.030;4.708;2022-07-01T02:40:27;5;5;
53678;PMS5003;40119;52.030;4.708;2022-07-01T02:42:32;6;6;
53678;PMS5003;40119;52.030;4.708;2022-07-01T02:44:36;8;8;
53678;PMS5003;40119;52.030;4.708;2022-07-01T02:46:40;6;6;
53678;PMS5003;40119;52.030;4.708;2022-07-01T02:48:45;8;8;
53678;PMS5003;40119;52.030;4.708;2022-07-01T02:50:49;6;6;
53678;PMS5003;40119;52.030;4.708;2022-07-01T02:52:54;9;9;
53678;PMS5003;40119;52.030;4.708;2022-07-01T02:54:58;10;9;
53678;PMS5003;40119;52.030;4.708;2022-07-01T02:57:03;9;7;
53678;PMS5003;40119;52.030;4.708;2022-07-01T02:59:08;7;7;
53678;PMS5003;40119;52.030;4.708;2022-07-01T03:01:13;5;5;
53678;PMS5003;40119;52.030;4.708;2022-07-01T03:03:18;6;6;
53678;PMS5003;40119;52.030;4.708;2022-07-01T03:05:22;6;6;
53678;PMS5003;40119;52.030;4.708;2022-07-01T03:07:26;7;7;
53678;PMS5003;40119;52.030;4.708;2022-07-01T03:09:31;6;6;
53678;PMS5003;40119;52.030;4.708;2022-07-01T03:11:35;5;5;
53678;PMS5003;40119;52.030;4.708;2022-07-01T03:13:40;7;7;
53678;PMS5003;40119;52.030;4.708;2022-07-01T03:15:44;8;6;
53678;PMS5003;40119;52.030;4.708;2022-07-01T03:17:53;5;5;
53678;PMS5003;40119;52.030;4.708;2022-07-01T03:19:58;2;2;
53678;PMS5003;40119;52.030;4.708;2022-07-01T03:22:03;4;4;
53678;PMS5003;40119;52.030;4.708;2022-07-01T03:24:08;3;3;
53678;PMS5003;40119;52.030;4.708;2022-07-01T03:26:13;5;5;
53678;PMS5003;40119;52.030;4.708;2022-07-01T03:28:17;7;6;
53678;PMS5003;40119;52.030;4.708;2022-07-01T03:30:21;5;5;
53678;PMS5003;40119;52.030;4.708;2022-07-01T03:32:26;3;3;
53678;PMS5003;40119;52.030;4.708;2022-07-01T03:34:30;3;2;
53678;PMS5003;40119;52.030;4.708;2022-07-01T03:36:34;5;5;
53678;PMS5003;40119;52.030;4.708;2022-07-01T03:38:39;3;3;
53678;PMS5003;40119;52.030;4.708;2022-07-01T03:40:43;5;5;
53678;PMS5003;40119;52.030;4.708;2022-07-01T03:42:47;4;4;
53678;PMS5003;40119;52.030;4.708;2022-07-01T03:44:52;3;3;
53678;PMS5003;40119;52.030;4.708;2022-07-01T03:46:56;3;3;
53678;PMS5003;40119;52.030;4.708;2022-07-01T03:49:01;3;3;
53678;PMS5003;40119;52.030;4.708;2022-07-01T03:51:06;3;3;
53678;PMS5003;40119;52.030;4.708;2022-07-01T03:53:11;3;3;
53678;PMS5003;40119;52.030;4.708;2022-07-01T03:55:16;5;4;
53678;PMS5003;40119;52.030;4.708;2022-07-01T03:57:21;4;4;
53678;PMS5003;40119;52.030;4.708;2022-07-01T03:59:26;6;4;
53678;PMS5003;40119;52.030;4.708;2022-07-01T04:01:32;3;3;
53678;PMS5003;40119;52.030;4.708;2022-07-01T04:03:36;3;3;
53678;PMS5003;40119;52.030;4.708;2022-07-01T04:05:41;3;3;
53678;PMS5003;40119;52.030;4.708;2022-07-01T04:07:45;3;3;
53678;PMS5003;40119;52.030;4.708;2022-07-01T04:09:50;3;3;
53678;PMS5003;40119;52.030;4.708;2022-07-01T04:11:55;3;3;
53678;PMS5003;40119;52.030;4.708;2022-07-01T04:14:01;3;3;
53678;PMS5003;40119;52.030;4.708;2022-07-01T04:16:06;6;4;
53678;PMS5003;40119;52.030;4.708;2022-07-01T04:18:11;3;3;
53678;PMS5003;40119;52.030;4.708;2022-07-01T04:20:15;4;4;
53678;PMS5003;40119;52.030;4.708;2022-07-01T04:22:19;6;6;
53678;PMS5003;40119;52.030;4.708;2022-07-01T04:24:24;5;5;
53678;PMS5003;40119;52.030;4.708;2022-07-01T04:26:28;7;2;
53678;PMS5003;40119;52.030;4.708;2022-07-01T04:28:33;7;6;
53678;PMS5003;40119;52.030;4.708;2022-07-01T04:30:37;5;5;
53678;PMS5003;40119;52.030;4.708;2022-07-01T04:32:41;3;3;
53678;PMS5003;40119;52.030;4.708;2022-07-01T04:34:46;3;3;
53678;PMS5003;40119;52.030;4.708;2022-07-01T04:36:50;4;3;
53678;PMS5003;40119;52.030;4.708;2022-07-01T04:38:55;3;3;
53678;PMS5003;40119;52.030;4.708;2022-07-01T04:41:00;4;4;
53678;PMS5003;40119;52.030;4.708;2022-07-01T04:43:05;5;5;
53678;PMS5003;40119;52.030;4.708;2022-07-01T04:45:10;4;4;
53678;PMS5003;40119;52.030;4.708;2022-07-01T04:47:14;5;5;
53678;PMS5003;40119;52.030;4.708;2022-07-01T04:49:18;3;3;
53678;PMS5003;40119;52.030;4.708;2022-07-01T04:51:23;7;6;
53678;PMS5003;40119;52.030;4.708;2022-07-01T04:53:27;5;5;
53678;PMS5003;40119;52.030;4.708;2022-07-01T04:55:31;4;4;
53678;PMS5003;40119;52.030;4.708;2022-07-01T04:57:36;4;4;
53678;PMS5003;40119;52.030;4.708;2022-07-01T04:59:40;9;5;
53678;PMS5003;40119;52.030;4.708;2022-07-01T05:01:44;6;5;
53678;PMS5003;40119;52.030;4.708;2022-07-01T05:03:49;5;5;
53678;PMS5003;40119;52.030;4.708;2022-07-01T05:05:54;6;4;
53678;PMS5003;40119;52.030;4.708;2022-07-01T05:07:58;5;5;
53678;PMS5003;40119;52.030;4.708;2022-07-01T05:10:03;5;5;
53678;PMS5003;40119;52.030;4.708;2022-07-01T05:12:08;3;3;
53678;PMS5003;40119;52.030;4.708;2022-07-01T05:14:13;6;4;
53678;PMS5003;40119;52.030;4.708;2022-07-01T05:16:17;5;5;
53678;PMS5003;40119;52.030;4.708;2022-07-01T05:18:22;5;5;
53678;PMS5003;40119;52.030;4.708;2022-07-01T05:20:26;4;4;
53678;PMS5003;40119;52.030;4.708;2022-07-01T05:22:31;7;5;
53678;PMS5003;40119;52.030;4.708;2022-07-01T05:24:35;5;4;
53678;PMS5003;40119;52.030;4.708;2022-07-01T05:26:39;5;4;
53678;PMS5003;40119;52.030;4.708;2022-07-01T05:28:44;4;4;
53678;PMS5003;40119;52.030;4.708;2022-07-01T05:30:49;4;4;
53678;PMS5003;40119;52.030;4.708;2022-07-01T05:32:53;3;3;
53678;PMS5003;40119;52.030;4.708;2022-07-01T05:34:58;6;6;
53678;PMS5003;40119;52.030;4.708;2022-07-01T05:37:02;5;5;
53678;PMS5003;40119;52.030;4.708;2022-07-01T05:39:07;5;5;
53678;PMS5003;40119;52.030;4.708;2022-07-01T05:41:12;6;5;
53678;PMS5003;40119;52.030;4.708;2022-07-01T05:43:17;7;4;
53678;PMS5003;40119;52.030;4.708;2022-07-01T05:45:21;6;6;
53678;PMS5003;40119;52.030;4.708;2022-07-01T05:47:26;3;3;
53678;PMS5003;40119;52.030;4.708;2022-07-01T05:49:30;3;3;
53678;PMS5003;40119;52.030;4.708;2022-07-01T05:51:34;5;5;
53678;PMS5003;40119;52.030;4.708;2022-07-01T05:53:39;4;4;
53678;PMS5003;40119;52.030;4.708;2022-07-01T05:55:43;4;4;
53678;PMS5003;40119;52.030;4.708;2022-07-01T05:57:50;4;4;
53678;PMS5003;40119;52.030;4.708;2022-07-01T05:59:54;5;4;
53678;PMS5003;40119;52.030;4.708;2022-07-01T06:01:59;2;2;
53678;PMS5003;40119;52.030;4.708;2022-07-01T06:04:03;4;3;
53678;PMS5003;40119;52.030;4.708;2022-07-01T06:06:08;4;4;
53678;PMS5003;40119;52.030;4.708;2022-07-01T06:08:16;1;1;
53678;PMS5003;40119;52.030;4.708;2022-07-01T06:10:22;4;4;
53678;PMS5003;40119;52.030;4.708;2022-07-01T06:12:26;4;4;
53678;PMS5003;40119;52.030;4.708;2022-07-01T06:14:31;5;5;
53678;PMS5003;40119;52.030;4.708;2022-07-01T06:16:35;6;6;
53678;PMS5003;40119;52.030;4.708;2022-07-01T06:18:40;4;4;
53678;PMS5003;40119;52.030;4.708;2022-07-01T06:20:44;5;4;
53678;PMS5003;40119;52.030;4.708;2022-07-01T06:22:49;3;3;
53678;PMS5003;40119;52.030;4.708;2022-07-01T06:24:53;5;4;
53678;PMS5003;40119;52.030;4.708;2022-07-01T06:26:58;3;3;
53678;PMS5003;40119;52.030;4.708;2022-07-01T06:29:02;5;5;
53678;PMS5003;40119;52.030;4.708;2022-07-01T06:31:07;3;3;
53678;PMS5003;40119;52.030;4.708;2022-07-01T06:33:12;3;3;
53678;PMS5003;40119;52.030;4.708;2022-07-01T06:35:17;3;3;
53678;PMS5003;40119;52.030;4.708;2022-07-01T06:37:21;5;4;
53678;PMS5003;40119;52.030;4.708;2022-07-01T06:39:26;5;4;
53678;PMS5003;40119;52.030;4.708;2022-07-01T06:41:31;5;5;
53678;PMS5003;40119;52.030;4.708;2022-07-01T06:43:35;6;4;
53678;PMS5003;40119;52.030;4.708;2022-07-01T06:45:40;4;4;
53678;PMS5003;40119;52.030;4.708;2022-07-01T06:47:44;4;4;
53678;PMS5003;40119;52.030;4.708;2022-07-01T06:49:48;7;7;
53678;PMS5003;40119;52.030;4.708;2022-07-01T06:51:53;5;5;
53678;PMS5003;40119;52.030;4.708;2022-07-01T06:53:57;5;5;
53678;PMS5003;40119;52.030;4.708;2022-07-01T06:56:01;7;5;
53678;PMS5003;40119;52.030;4.708;2022-07-01T06:58:06;4;4;
53678;PMS5003;40119;52.030;4.708;2022-07-01T07:00:12;4;4;
53678;PMS5003;40119;52.030;4.708;2022-07-01T07:02:16;6;4;
53678;PMS5003;40119;52.030;4.708;2022-07-01T07:04:21;2;2;
53678;PMS5003;40119;52.030;4.708;2022-07-01T07:06:25;6;5;
53678;PMS5003;40119;52.030;4.708;2022-07-01T07:08:31;4;4;
53678;PMS5003;40119;52.030;4.708;2022-07-01T07:10:36;4;4;
53678;PMS5003;40119;52.030;4.708;2022-07-01T07:12:40;6;5;
53678;PMS5003;40119;52.030;4.708;2022-07-01T07:14:49;3;3;
53678;PMS5003;40119;52.030;4.708;2022-07-01T07:16:54;3;3;
53678;PMS5003;40119;52.030;4.708;2022-07-01T07:18:58;7;7;
53678;PMS5003;40119;52.030;4.708;2022-07-01T07:21:02;4;4;
53678;PMS5003;40119;52.030;4.708;2022-07-01T07:23:07;6;6;
53678;PMS5003;40119;52.030;4.708;2022-07-01T07:25:13;4;4;
53678;PMS5003;40119;52.030;4.708;2022-07-01T07:27:17;5;5;
53678;PMS5003;40119;52.030;4.708;2022-07-01T07:29:22;4;4;
53678;PMS5003;40119;52.030;4.708;2022-07-01T07:31:26;5;5;
53678;PMS5003;40119;52.030;4.708;2022-07-01T07:33:34;5;5;
53678;PMS5003;40119;52.030;4.708;2022-07-01T07:35:40;4;4;
53678;PMS5003;40119;52.030;4.708;2022-07-01T07:37:45;5;4;
53678;PMS5003;40119;52.030;4.708;2022-07-01T07:39:49;5;5;
53678;PMS5003;40119;52.030;4.708;2022-07-01T07:41:54;5;5;
53678;PMS5003;40119;52.030;4.708;2022-07-01T07:43:58;6;6;
53678;PMS5003;40119;52.030;4.708;2022-07-01T07:46:03;5;3;
53678;PMS5003;40119;52.030;4.708;2022-07-01T07:48:08;5;5;
53678;PMS5003;40119;52.030;4.708;2022-07-01T07:50:13;3;3;
53678;PMS5003;40119;52.030;4.708;2022-07-01T07:52:18;4;4;
53678;PMS5003;40119;52.030;4.708;2022-07-01T07:54:22;5;3;
53678;PMS5003;40119;52.030;4.708;2022-07-01T07:56:26;4;4;
53678;PMS5003;40119;52.030;4.708;2022-07-01T07:58:31;3;3;
53678;PMS5003;40119;52.030;4.708;2022-07-01T08:00:36;3;3;
53678;PMS5003;40119;52.030;4.708;2022-07-01T08:02:41;5;5;
53678;PMS5003;40119;52.030;4.708;2022-07-01T08:04:46;5;5;
53678;PMS5003;40119;52.030;4.708;2022-07-01T08:06:51;6;6;
53678;PMS5003;40119;52.030;4.708;2022-07-01T08:08:55;3;3;
53678;PMS5003;40119;52.030;4.708;2022-07-01T08:11:00;6;6;
53678;PMS5003;40119;52.030;4.708;2022-07-01T08:13:05;4;4;
53678;PMS5003;40119;52.030;4.708;2022-07-01T08:15:10;6;5;
53678;PMS5003;40119;52.030;4.708;2022-07-01T08:17:14;5;5;
53678;PMS5003;40119;52.030;4.708;2022-07-01T08:19:19;5;4;
53678;PMS5003;40119;52.030;4.708;2022-07-01T08:21:25;4;4;
53678;PMS5003;40119;52.030;4.708;2022-07-01T08:23:30;5;4;
53678;PMS5003;40119;52.030;4.708;2022-07-01T08:25:34;5;5;
53678;PMS5003;40119;52.030;4.708;2022-07-01T08:27:39;6;5;
53678;PMS5003;40119;52.030;4.708;2022-07-01T08:29:43;3;3;
53678;PMS5003;40119;52.030;4.708;2022-07-01T08:31:54;4;4;
53678;PMS5003;40119;52.030;4.708;2022-07-01T08:34:02;7;5;
53678;PMS5003;40119;52.030;4.708;2022-07-01T08:36:09;8;8;
53678;PMS5003;40119;52.030;4.708;2022-07-01T08:38:14;4;4;
53678;PMS5003;40119;52.030;4.708;2022-07-01T08:40:18;5;5;
53678;PMS5003;40119;52.030;4.708;2022-07-01T08:42:23;4;4;
53678;PMS5003;40119;52.030;4.708;2022-07-01T08:44:28;5;5;
53678;PMS5003;40119;52.030;4.708;2022-07-01T08:46:33;3;3;
53678;PMS5003;40119;52.030;4.708;2022-07-01T08:48:41;5;5;
53678;PMS5003;40119;52.030;4.708;2022-07-01T08:50:46;5;5;
53678;PMS5003;40119;52.030;4.708;2022-07-01T08:52:50;5;4;
53678;PMS5003;40119;52.030;4.708;2022-07-01T08:54:55;7;5;
53678;PMS5003;40119;52.030;4.708;2022-07-01T08:56:59;6;5;
53678;PMS5003;40119;52.030;4.708;2022-07-01T08:59:04;7;7;
53678;PMS5003;40119;52.030;4.708;2022-07-01T09:01:12;6;6;
53678;PMS5003;40119;52.030;4.708;2022-07-01T09:03:20;6;6;
53678;PMS5003;40119;52.030;4.708;2022-07-01T09:05:26;5;5;
53678;PMS5003;40119;52.030;4.708;2022-07-01T09:07:32;6;5;
53678;PMS5003;40119;52.030;4.708;2022-07-01T09:09:37;5;5;
53678;PMS5003;40119;52.030;4.708;2022-07-01T09:11:43;7;6;
53678;PMS5003;40119;52.030;4.708;2022-07-01T09:14:04;6;6;
53678;PMS5003;40119;52.030;4.708;2022-07-01T09:16:11;7;7;
53678;PMS5003;40119;52.030;4.708;2022-07-01T09:18:16;7;6;
53678;PMS5003;40119;52.030;4.708;2022-07-01T09:20:23;7;7;
53678;PMS5003;40119;52.030;4.708;2022-07-01T09:22:29;7;6;
53678;PMS5003;40119;52.030;4.708;2022-07-01T09:24:34;6;6;
53678;PMS5003;40119;52.030;4.708;2022-07-01T09:26:39;4;4;
53678;PMS5003;40119;52.030;4.708;2022-07-01T09:28:43;6;6;
53678;PMS5003;40119;52.030;4.708;2022-07-01T09:30:57;6;6;
53678;PMS5003;40119;52.030;4.708;2022-07-01T09:33:05;4;4;
53678;PMS5003;40119;52.030;4.708;2022-07-01T09:35:12;7;5;
53678;PMS5003;40119;52.030;4.708;2022-07-01T09:37:26;5;5;
53678;PMS5003;40119;52.030;4.708;2022-07-01T09:39:30;6;6;
53678;PMS5003;40119;52.030;4.708;2022-07-01T09:41:46;8;6;
53678;PMS5003;40119;52.030;4.708;2022-07-01T09:43:51;5;5;
53678;PMS5003;40119;52.030;4.708;2022-07-01T09:45:56;5;5;
53678;PMS5003;40119;52.030;4.708;2022-07-01T09:48:02;7;6;
53678;PMS5003;40119;52.030;4.708;2022-07-01T09:50:08;7;7;
53678;PMS5003;40119;52.030;4.708;2022-07-01T09:52:14;8;8;
53678;PMS5003;40119;52.030;4.708;2022-07-01T09:54:19;6;6;
53678;PMS5003;40119;52.030;4.708;2022-07-01T09:56:24;7;7;
53678;PMS5003;40119;52.030;4.708;2022-07-01T09:58:28;5;5;
53678;PMS5003;40119;52.030;4.708;2022-07-01T10:00:33;7;7;
53678;PMS5003;40119;52.030;4.708;2022-07-01T10:02:39;12;10;
53678;PMS5003;40119;52.030;4.708;2022-07-01T10:04:46;8;7;
53678;PMS5003;40119;52.030;4.708;2022-07-01T10:06:57;8;7;
53678;PMS5003;40119;52.030;4.708;2022-07-01T10:09:15;8;8;
53678;PMS5003;40119;52.030;4.708;2022-07-01T10:11:37;11;11;
53678;PMS5003;40119;52.030;4.708;2022-07-01T10:13:56;13;13;
53678;PMS5003;40119;52.030;4.708;2022-07-01T10:16:03;9;9;
53678;PMS5003;40119;52.030;4.708;2022-07-01T10:18:18;10;9;
53678;PMS5003;40119;52.030;4.708;2022-07-01T10:20:24;9;9;
53678;PMS5003;40119;52.030;4.708;2022-07-01T10:22:29;9;9;
53678;PMS5003;40119;52.030;4.708;2022-07-01T10:24:33;10;9;
53678;PMS5003;40119;52.030;4.708;2022-07-01T10:26:38;7;7;
53678;PMS5003;40119;52.030;4.708;2022-07-01T10:28:43;9;8;
53678;PMS5003;40119;52.030;4.708;2022-07-01T10:30:48;7;7;
53678;PMS5003;40119;52.030;4.708;2022-07-01T10:32:54;8;8;
53678;PMS5003;40119;52.030;4.708;2022-07-01T10:35:04;7;7;
53678;PMS5003;40119;52.030;4.708;2022-07-01T10:37:11;7;6;
53678;PMS5003;40119;52.030;4.708;2022-07-01T10:39:16;5;5;
53678;PMS5003;40119;52.030;4.708;2022-07-01T10:41:22;6;6;
53678;PMS5003;40119;52.030;4.708;2022-07-01T10:43:31;8;6;
53678;PMS5003;40119;52.030;4.708;2022-07-01T10:45:45;9;6;
53678;PMS5003;40119;52.030;4.708;2022-07-01T10:47:50;8;8;
53678;PMS5003;40119;52.030;4.708;2022-07-01T10:50:22;8;8;
53678;PMS5003;40119;52.030;4.708;2022-07-01T10:52:26;7;6;
53678;PMS5003;40119;52.030;4.708;2022-07-01T10:54:49;8;8;
53678;PMS5003;40119;52.030;4.708;2022-07-01T10:56:55;9;9;
53678;PMS5003;40119;52.030;4.708;2022-07-01T10:59:00;8;8;
53678;PMS5003;40119;52.030;4.708;2022-07-01T11:01:05;5;5;
53678;PMS5003;40119;52.030;4.708;2022-07-01T11:03:12;8;8;
53678;PMS5003;40119;52.030;4.708;2022-07-01T11:05:19;7;7;
53678;PMS5003;40119;52.030;4.708;2022-07-01T11:07:26;6;6;
53678;PMS5003;40119;52.030;4.708;2022-07-01T11:09:32;7;7;
53678;PMS5003;40119;52.030;4.708;2022-07-01T11:11:36;9;8;
53678;PMS5003;40119;52.030;4.708;2022-07-01T11:13:40;7;6;
53678;PMS5003;40119;52.030;4.708;2022-07-01T11:15:45;5;5;
53678;PMS5003;40119;52.030;4.708;2022-07-01T11:17:50;6;6;
53678;PMS5003;40119;52.030;4.708;2022-07-01T11:19:55;9;8;
53678;PMS5003;40119;52.030;4.708;2022-07-01T11:22:01;9;9;
53678;PMS5003;40119;52.030;4.708;2022-07-01T11:24:08;7;7;
53678;PMS5003;40119;52.030;4.708;2022-07-01T11:26:21;7;7;
53678;PMS5003;40119;52.030;4.708;2022-07-01T11:28:27;7;7;
53678;PMS5003;40119;52.030;4.708;2022-07-01T11:30:32;8;8;
53678;PMS5003;40119;52.030;4.708;2022-07-01T11:32:38;6;6;
53678;PMS5003;40119;52.030;4.708;2022-07-01T11:34:44;8;8;
53678;PMS5003;40119;52.030;4.708;2022-07-01T11:36:49;8;8;
53678;PMS5003;40119;52.030;4.708;2022-07-01T11:38:54;6;6;
53678;PMS5003;40119;52.030;4.708;2022-07-01T11:41:00;8;7;
53678;PMS5003;40119;52.030;4.708;2022-07-01T11:43:17;7;6;
53678;PMS5003;40119;52.030;4.708;2022-07-01T11:45:23;7;7;
53678;PMS5003;40119;52.030;4.708;2022-07-01T11:47:29;8;8;
53678;PMS5003;40119;52.030;4.708;2022-07-01T11:49:34;10;9;
53678;PMS5003;40119;52.030;4.708;2022-07-01T11:51:53;6;6;
53678;PMS5003;40119;52.030;4.708;2022-07-01T11:53:58;8;8;
53678;PMS5003;40119;52.030;4.708;2022-07-01T11:56:03;8;7;
53678;PMS5003;40119;52.030;4.708;2022-07-01T11:58:08;9;9;
53678;PMS5003;40119;52.030;4.708;2022-07-01T12:00:13;9;8;
53678;PMS5003;40119;52.030;4.708;2022-07-01T12:02:19;8;8;
53678;PMS5003;40119;52.030;4.708;2022-07-01T12:04:24;7;7;
53678;PMS5003;40119;52.030;4.708;2022-07-01T12:06:29;11;8;
53678;PMS5003;40119;52.030;4.708;2022-07-01T12:08:34;8;8;
53678;PMS5003;40119;52.030;4.708;2022-07-01T12:10:39;9;9;
53678;PMS5003;40119;52.030;4.708;2022-07-01T12:12:43;7;7;
53678;PMS5003;40119;52.030;4.708;2022-07-01T12:14:49;8;8;
53678;PMS5003;40119;52.030;4.708;2022-07-01T12:16:57;9;9;
53678;PMS5003;40119;52.030;4.708;2022-07-01T12:19:03;10;10;
53678;PMS5003;40119;52.030;4.708;2022-07-01T12:21:08;8;8;
53678;PMS5003;40119;52.030;4.708;2022-07-01T12:23:13;8;7;
53678;PMS5003;40119;52.030;4.708;2022-07-01T12:25:17;6;6;
53678;PMS5003;40119;52.030;4.708;2022-07-01T12:27:22;7;7;
53678;PMS5003;40119;52.030;4.708;2022-07-01T12:29:27;8;7;
53678;PMS5003;40119;52.030;4.708;2022-07-01T12:31:34;8;6;
53678;PMS5003;40119;52.030;4.708;2022-07-01T12:33:39;8;7;
53678;PMS5003;40119;52.030;4.708;2022-07-01T12:35:51;8;8;
53678;PMS5003;40119;52.030;4.708;2022-07-01T12:37:56;9;8;
53678;PMS5003;40119;52.030;4.708;2022-07-01T12:40:01;8;6;
53678;PMS5003;40119;52.030;4.708;2022-07-01T12:42:07;9;9;
53678;PMS5003;40119;52.030;4.708;2022-07-01T12:44:23;8;8;
53678;PMS5003;40119;52.030;4.708;2022-07-01T12:46:29;6;6;
53678;PMS5003;40119;52.030;4.708;2022-07-01T12:48:47;6;6;
53678;PMS5003;40119;52.030;4.708;2022-07-01T12:50:52;8;8;
53678;PMS5003;40119;52.030;4.708;2022-07-01T12:52:59;4;4;
53678;PMS5003;40119;52.030;4.708;2022-07-01T12:55:12;9;8;
53678;PMS5003;40119;52.030;4.708;2022-07-01T12:57:28;9;9;
53678;PMS5003;40119;52.030;4.708;2022-07-01T12:59:37;8;8;
53678;PMS5003;40119;52.030;4.708;2022-07-01T13:01:42;9;9;
53678;PMS5003;40119;52.030;4.708;2022-07-01T13:03:47;7;7;
53678;PMS5003;40119;52.030;4.708;2022-07-01T13:05:53;8;8;
53678;PMS5003;40119;52.030;4.708;2022-07-01T13:07:59;8;8;
53678;PMS5003;40119;52.030;4.708;2022-07-01T13:10:04;9;9;
53678;PMS5003;40119;52.030;4.708;2022-07-01T13:12:10;9;9;
53678;PMS5003;40119;52.030;4.708;2022-07-01T13:14:14;10;9;
53678;PMS5003;40119;52.030;4.708;2022-07-01T13:16:19;10;9;
53678;PMS5003;40119;52.030;4.708;2022-07-01T13:18:24;8;8;
53678;PMS5003;40119;52.030;4.708;2022-07-01T13:20:29;10;10;
53678;PMS5003;40119;52.030;4.708;2022-07-01T13:22:34;10;10;
53678;PMS5003;40119;52.030;4.708;2022-07-01T13:24:39;8;8;
53678;PMS5003;40119;52.030;4.708;2022-07-01T13:26:44;10;10;
53678;PMS5003;40119;52.030;4.708;2022-07-01T13:28:48;13;12;
53678;PMS5003;40119;52.030;4.708;2022-07-01T13:30:53;8;8;
53678;PMS5003;40119;52.030;4.708;2022-07-01T13:32:58;9;9;
53678;PMS5003;40119;52.030;4.708;2022-07-01T13:35:03;11;11;
53678;PMS5003;40119;52.030;4.708;2022-07-01T13:37:09;11;9;
53678;PMS5003;40119;52.030;4.708;2022-07-01T13:39:14;13;12;
53678;PMS5003;40119;52.030;4.708;2022-07-01T13:41:19;11;11;
53678;PMS5003;40119;52.030;4.708;2022-07-01T13:43:23;10;10;
53678;PMS5003;40119;52.030;4.708;2022-07-01T13:45:28;12;11;
53678;PMS5003;40119;52.030;4.708;2022-07-01T13:47:33;11;10;
53678;PMS5003;40119;52.030;4.708;2022-07-01T13:49:37;11;11;
53678;PMS5003;40119;52.030;4.708;2022-07-01T13:51:42;10;10;
53678;PMS5003;40119;52.030;4.708;2022-07-01T13:53:47;10;10;
53678;PMS5003;40119;52.030;4.708;2022-07-01T13:55:52;10;10;
53678;PMS5003;40119;52.030;4.708;2022-07-01T13:57:57;8;8;
53678;PMS5003;40119;52.030;4.708;2022-07-01T14:00:02;12;12;
53678;PMS5003;40119;52.030;4.708;2022-07-01T14:02:09;11;11;
53678;PMS5003;40119;52.030;4.708;2022-07-01T14:04:14;13;12;
53678;PMS5003;40119;52.030;4.708;2022-07-01T14:06:19;13;12;
53678;PMS5003;40119;52.030;4.708;2022-07-01T14:08:23;13;11;
53678;PMS5003;40119;52.030;4.708;2022-07-01T14:10:27;10;10;
53678;PMS5003;40119;52.030;4.708;2022-07-01T14:12:32;14;13;
53678;PMS5003;40119;52.030;4.708;2022-07-01T14:14:36;11;11;
53678;PMS5003;40119;52.030;4.708;2022-07-01T14:16:41;10;10;
53678;PMS5003;40119;52.030;4.708;2022-07-01T14:18:45;12;11;